Terminal Aerodrome Forecast
Issued by NWS

Home | Current Version | Previous Version | Text Only | Print | Product List | Glossary On
Versions: 1 2 3 4 5 6 7 8 9 10 11 12 13 14 15 16 17 18 19
507
FTUS45 KTFX 140539
TAFCTB
TAF
KCTB 140539Z 1406/1506 25009KT P6SM BKN150
     FM141600 26022G35KT P6SM BKN120
     FM150300 26018KT P6SM OVC200=

USA.gov is the U.S. government's official web portal to all federal, state and local government web resources and services.